RAM719 LFLL-GMMN
Flight info
| Callsign | RAM719 |
|---|---|
| Flight time | N/A |
| Altitude | 33000 |
| Route | REPSI DCT LERGA DCT MINSO DCT NARAK DCT AGN/N0439F370 DCT MAQAB DCT TIVLI DCT ELSAP DCT ZAR DCT EXEMU DCT PISUS DCT EDIMU DCT ADUXO DCT NUSGO DCT OBIBO DCT NASOS L27 BLN DCT MGA DCT PIMOS DCT GALTO UB11 TUSOR |
| Aircraft | B738/M-SDE2E3FGHIRWXY/LB1 |
Departure
| Time | 2026-04-28 10:49 |
|---|---|
| Airport | Lyon Saint-Exupéry Airport (LFLL) |
Arrival
| Time | N/A |
|---|---|
| Airport | Mohammed V International Airport (GMMN) |
| Time | Latitude | Longitude | Altitude | Speed | Heading |
|---|---|---|---|---|---|
| 2026-04-28 10:18 | 45.72182 | 5.08207 | 0 ft | 0 kts | 258° |
| 2026-04-28 10:20 | 45.72189 | 5.08197 | 402 ft | 0 kts | 296° |
| 2026-04-28 10:38 | 45.72187 | 5.08202 | 808 ft | 2 kts | 296° |
| 2026-04-28 10:38 | 45.72181 | 5.08224 | 808 ft | 2 kts | 291° |
| 2026-04-28 10:39 | 45.72175 | 5.08246 | 808 ft | 2 kts | 285° |
| 2026-04-28 10:39 | 45.72172 | 5.08269 | 808 ft | 2 kts | 274° |
| 2026-04-28 10:39 | 45.72173 | 5.08293 | 808 ft | 2 kts | 248° |
| 2026-04-28 10:39 | 45.72184 | 5.08311 | 808 ft | 2 kts | 203° |
| 2026-04-28 10:40 | 45.72193 | 5.08315 | 808 ft | 1 kts | 185° |
| 2026-04-28 10:40 | 45.72194 | 5.08315 | 808 ft | 0 kts | 184° |
| 2026-04-28 10:43 | 45.72193 | 5.08315 | 808 ft | 1 kts | 185° |
| 2026-04-28 10:43 | 45.72162 | 5.08308 | 809 ft | 9 kts | 188° |
| 2026-04-28 10:43 | 45.72077 | 5.08270 | 810 ft | 16 kts | 200° |
| 2026-04-28 10:43 | 45.71990 | 5.08245 | 811 ft | 8 kts | 165° |
| 2026-04-28 10:44 | 45.71968 | 5.08300 | 812 ft | 10 kts | 107° |
| 2026-04-28 10:44 | 45.71933 | 5.08440 | 812 ft | 19 kts | 131° |
| 2026-04-28 10:44 | 45.71784 | 5.08478 | 814 ft | 22 kts | 175° |
| 2026-04-28 10:44 | 45.71616 | 5.08501 | 817 ft | 28 kts | 174° |
| 2026-04-28 10:45 | 45.71454 | 5.08515 | 819 ft | 23 kts | 174° |
| 2026-04-28 10:45 | 45.71301 | 5.08535 | 822 ft | 23 kts | 174° |
| 2026-04-28 10:45 | 45.71150 | 5.08577 | 824 ft | 22 kts | 139° |
| 2026-04-28 10:45 | 45.71093 | 5.08783 | 824 ft | 17 kts | 105° |
| 2026-04-28 10:46 | 45.71075 | 5.08929 | 824 ft | 18 kts | 83° |
| 2026-04-28 10:46 | 45.71090 | 5.09153 | 825 ft | 21 kts | 85° |
| 2026-04-28 10:46 | 45.71097 | 5.09265 | 828 ft | 4 kts | 84° |
| 2026-04-28 10:46 | 45.71100 | 5.09301 | 829 ft | 3 kts | 84° |
| 2026-04-28 10:47 | 45.71102 | 5.09327 | 830 ft | 2 kts | 84° |
| 2026-04-28 10:47 | 45.71103 | 5.09345 | 830 ft | 2 kts | 84° |
| 2026-04-28 10:47 | 45.71104 | 5.09364 | 831 ft | 4 kts | 85° |
| 2026-04-28 10:47 | 45.71119 | 5.09434 | 831 ft | 12 kts | 50° |
| 2026-04-28 10:48 | 45.71194 | 5.09466 | 829 ft | 0 kts | 356° |
| 2026-04-28 10:48 | 45.71269 | 5.09459 | 831 ft | 44 kts | 355° |
| 2026-04-28 10:48 | 45.71860 | 5.09385 | 817 ft | 124 kts | 356° |
| 2026-04-28 10:48 | 45.72914 | 5.09252 | 942 ft | 172 kts | 355° |
| 2026-04-28 10:49 | 45.74174 | 5.09085 | 1676 ft | 185 kts | 354° |
| 2026-04-28 10:49 | 45.75397 | 5.08769 | 2735 ft | 184 kts | 349° |
| 2026-04-28 10:49 | 45.76758 | 5.08552 | 3343 ft | 211 kts | 355° |
| 2026-04-28 10:49 | 45.78313 | 5.08369 | 4144 ft | 236 kts | 354° |
| 2026-04-28 10:50 | 45.80012 | 5.08154 | 5209 ft | 255 kts | 353° |
| 2026-04-28 10:50 | 45.81846 | 5.07907 | 6232 ft | 274 kts | 353° |
| 2026-04-28 10:50 | 45.83798 | 5.07640 | 7194 ft | 286 kts | 353° |
| 2026-04-28 10:50 | 45.85789 | 5.07213 | 8351 ft | 288 kts | 340° |
| 2026-04-28 10:51 | 45.87525 | 5.05814 | 9378 ft | 288 kts | 314° |
| 2026-04-28 10:51 | 45.88694 | 5.03508 | 10341 ft | 289 kts | 291° |
| 2026-04-28 10:51 | 45.89159 | 5.00661 | 10958 ft | 301 kts | 268° |
| 2026-04-28 10:51 | 45.88810 | 4.97664 | 11660 ft | 310 kts | 248° |
| 2026-04-28 10:52 | 45.87820 | 4.94871 | 12420 ft | 318 kts | 239° |
| 2026-04-28 10:52 | 45.86740 | 4.92148 | 13383 ft | 321 kts | 239° |
| 2026-04-28 10:52 | 45.85591 | 4.89323 | 14218 ft | 327 kts | 238° |
| 2026-04-28 10:52 | 45.84443 | 4.86544 | 15052 ft | 329 kts | 238° |
| 2026-04-28 10:53 | 45.83252 | 4.83690 | 15948 ft | 329 kts | 238° |
| 2026-04-28 10:53 | 45.82092 | 4.80892 | 16772 ft | 331 kts | 238° |
| 2026-04-28 10:53 | 45.80910 | 4.78049 | 17625 ft | 332 kts | 239° |
| 2026-04-28 10:53 | 45.79722 | 4.75200 | 18427 ft | 334 kts | 239° |
| 2026-04-28 10:54 | 45.78528 | 4.72339 | 19109 ft | 336 kts | 238° |
| 2026-04-28 10:54 | 45.77100 | 4.69683 | 19742 ft | 339 kts | 228° |
| 2026-04-28 10:54 | 45.75536 | 4.67135 | 20353 ft | 343 kts | 230° |
| 2026-04-28 10:54 | 45.73985 | 4.64528 | 20964 ft | 346 kts | 231° |
| 2026-04-28 10:55 | 45.72426 | 4.61883 | 21585 ft | 349 kts | 231° |
| 2026-04-28 10:55 | 45.70861 | 4.59212 | 22188 ft | 352 kts | 231° |
| 2026-04-28 10:55 | 45.69274 | 4.56501 | 22753 ft | 356 kts | 231° |
| 2026-04-28 10:55 | 45.67682 | 4.53780 | 23338 ft | 359 kts | 231° |
| 2026-04-28 10:56 | 45.66069 | 4.51023 | 23821 ft | 364 kts | 231° |
| 2026-04-28 10:56 | 45.64440 | 4.48243 | 24321 ft | 366 kts | 231° |
| 2026-04-28 10:56 | 45.62802 | 4.45448 | 24835 ft | 368 kts | 231° |
| 2026-04-28 10:56 | 45.61154 | 4.42640 | 25332 ft | 370 kts | 231° |
| 2026-04-28 10:57 | 45.59496 | 4.39817 | 25816 ft | 372 kts | 231° |
| 2026-04-28 10:57 | 45.57834 | 4.36990 | 26293 ft | 374 kts | 232° |
| 2026-04-28 10:57 | 45.56146 | 4.34124 | 26774 ft | 376 kts | 232° |
| 2026-04-28 10:57 | 45.54468 | 4.31276 | 27257 ft | 378 kts | 232° |
| 2026-04-28 10:58 | 45.52768 | 4.28397 | 27710 ft | 380 kts | 231° |
| 2026-04-28 10:58 | 45.50821 | 4.25809 | 28160 ft | 385 kts | 221° |
| 2026-04-28 10:58 | 45.48761 | 4.23374 | 28596 ft | 386 kts | 223° |
| 2026-04-28 10:58 | 45.46692 | 4.20898 | 29015 ft | 389 kts | 223° |
| 2026-04-28 10:59 | 45.44622 | 4.18429 | 29440 ft | 391 kts | 223° |
| 2026-04-28 10:59 | 45.42518 | 4.15926 | 29867 ft | 393 kts | 223° |
| 2026-04-28 10:59 | 45.40417 | 4.13429 | 30266 ft | 395 kts | 223° |
| 2026-04-28 10:59 | 45.38308 | 4.10924 | 30725 ft | 393 kts | 223° |
| 2026-04-28 11:00 | 45.36236 | 4.08466 | 31193 ft | 391 kts | 223° |
| 2026-04-28 11:00 | 45.34140 | 4.05981 | 31673 ft | 389 kts | 223° |
| 2026-04-28 11:00 | 45.32064 | 4.03522 | 32111 ft | 388 kts | 223° |
| 2026-04-28 11:00 | 45.29993 | 4.01072 | 32557 ft | 387 kts | 223° |
| 2026-04-28 11:01 | 45.27927 | 3.98631 | 32949 ft | 387 kts | 223° |
| 2026-04-28 11:01 | 45.23789 | 3.93749 | 33050 ft | 384 kts | 223° |
| 2026-04-28 11:02 | 45.19687 | 3.88917 | 33044 ft | 384 kts | 223° |
| 2026-04-28 11:02 | 45.15574 | 3.84083 | 33039 ft | 384 kts | 223° |
| 2026-04-28 11:03 | 45.11459 | 3.79255 | 33046 ft | 384 kts | 223° |
| 2026-04-28 11:03 | 45.07345 | 3.74439 | 33047 ft | 385 kts | 223° |
| 2026-04-28 11:04 | 45.03216 | 3.69613 | 33047 ft | 385 kts | 223° |
| 2026-04-28 11:04 | 44.99114 | 3.64828 | 33041 ft | 385 kts | 223° |
| 2026-04-28 11:05 | 44.94983 | 3.60019 | 33025 ft | 385 kts | 223° |
| 2026-04-28 11:05 | 44.90847 | 3.55213 | 33024 ft | 385 kts | 222° |
| 2026-04-28 11:06 | 44.86712 | 3.50417 | 33028 ft | 385 kts | 222° |
| 2026-04-28 11:06 | 44.82563 | 3.45616 | 33028 ft | 385 kts | 222° |
| 2026-04-28 11:07 | 44.78410 | 3.40818 | 33034 ft | 386 kts | 222° |
| 2026-04-28 11:07 | 44.74263 | 3.36037 | 33038 ft | 386 kts | 222° |
| 2026-04-28 11:08 | 44.70106 | 3.31253 | 33040 ft | 386 kts | 222° |
| 2026-04-28 11:08 | 44.65942 | 3.26470 | 33043 ft | 386 kts | 222° |
| 2026-04-28 11:09 | 44.61800 | 3.21721 | 33043 ft | 387 kts | 222° |
| 2026-04-28 11:09 | 44.57634 | 3.16955 | 33044 ft | 387 kts | 222° |
| 2026-04-28 11:10 | 44.53458 | 3.12185 | 33047 ft | 388 kts | 221° |
| 2026-04-28 11:10 | 44.49274 | 3.07416 | 33046 ft | 387 kts | 221° |
| 2026-04-28 11:11 | 44.45083 | 3.02648 | 33048 ft | 388 kts | 221° |
| 2026-04-28 11:11 | 44.40883 | 2.97880 | 33056 ft | 388 kts | 221° |
| 2026-04-28 11:12 | 44.36687 | 2.93125 | 33056 ft | 388 kts | 221° |
| 2026-04-28 11:12 | 44.32520 | 2.88410 | 33060 ft | 388 kts | 221° |
| 2026-04-28 11:13 | 44.28312 | 2.83659 | 33065 ft | 388 kts | 221° |
| 2026-04-28 11:13 | 44.24104 | 2.78917 | 33068 ft | 389 kts | 221° |
| 2026-04-28 11:14 | 44.19888 | 2.74174 | 33061 ft | 389 kts | 221° |
| 2026-04-28 11:14 | 44.15693 | 2.69466 | 33059 ft | 389 kts | 221° |
| 2026-04-28 11:15 | 44.11475 | 2.64739 | 33053 ft | 389 kts | 221° |
| 2026-04-28 11:15 | 44.07254 | 2.60018 | 33053 ft | 389 kts | 221° |
| 2026-04-28 11:16 | 44.03017 | 2.55298 | 33053 ft | 391 kts | 220° |
| 2026-04-28 11:16 | 43.98612 | 2.50698 | 33054 ft | 400 kts | 219° |
| 2026-04-28 11:17 | 43.94867 | 2.45215 | 33050 ft | 393 kts | 248° |
| 2026-04-28 11:17 | 43.94312 | 2.41521 | 33060 ft | 396 kts | 266° |
| 2026-04-28 11:17 | 43.94266 | 2.37673 | 33046 ft | 399 kts | 266° |
| 2026-04-28 11:18 | 43.93895 | 2.30052 | 33056 ft | 399 kts | 265° |
| 2026-04-28 11:18 | 43.93619 | 2.22373 | 33054 ft | 399 kts | 265° |
| 2026-04-28 11:19 | 43.93378 | 2.14669 | 33051 ft | 399 kts | 265° |
| 2026-04-28 11:19 | 43.93180 | 2.08224 | 33050 ft | 399 kts | 265° |
| 2026-04-28 11:20 | 43.92939 | 2.00535 | 33048 ft | 399 kts | 265° |
| 2026-04-28 11:20 | 43.92694 | 1.92841 | 33044 ft | 399 kts | 265° |
| 2026-04-28 11:21 | 43.92444 | 1.85154 | 33040 ft | 399 kts | 265° |
| 2026-04-28 11:21 | 43.92188 | 1.77454 | 33038 ft | 399 kts | 265° |
| 2026-04-28 11:22 | 43.91928 | 1.69809 | 33037 ft | 399 kts | 265° |
| 2026-04-28 11:22 | 43.91663 | 1.62126 | 33031 ft | 399 kts | 265° |
| 2026-04-28 11:23 | 43.91391 | 1.54436 | 33031 ft | 399 kts | 265° |
| 2026-04-28 11:23 | 43.91113 | 1.46700 | 33030 ft | 399 kts | 265° |
| 2026-04-28 11:24 | 43.90834 | 1.39058 | 33025 ft | 399 kts | 265° |
| 2026-04-28 11:24 | 43.90547 | 1.31376 | 33029 ft | 399 kts | 265° |
| 2026-04-28 11:25 | 43.90256 | 1.23694 | 33032 ft | 399 kts | 265° |
| 2026-04-28 11:25 | 43.89959 | 1.16007 | 33029 ft | 399 kts | 265° |
| 2026-04-28 11:26 | 43.89656 | 1.08307 | 33038 ft | 400 kts | 264° |
| 2026-04-28 11:26 | 43.89349 | 1.00627 | 33034 ft | 399 kts | 264° |
| 2026-04-28 11:27 | 43.89030 | 0.92939 | 33022 ft | 399 kts | 263° |
| 2026-04-28 11:27 | 43.88436 | 0.89225 | 33023 ft | 394 kts | 246° |
| 2026-04-28 11:27 | 43.87056 | 0.85968 | 33040 ft | 394 kts | 231° |
| 2026-04-28 11:28 | 43.83178 | 0.80538 | 33030 ft | 397 kts | 225° |
| 2026-04-28 11:28 | 43.79112 | 0.75346 | 33025 ft | 398 kts | 224° |
| 2026-04-28 11:29 | 43.74993 | 0.70225 | 33032 ft | 398 kts | 223° |
| 2026-04-28 11:29 | 43.70860 | 0.65133 | 33026 ft | 398 kts | 223° |
| 2026-04-28 11:30 | 43.66745 | 0.60077 | 33024 ft | 398 kts | 223° |
| 2026-04-28 11:30 | 43.60501 | 0.52426 | 33021 ft | 399 kts | 223° |
| 2026-04-28 11:31 | 43.56370 | 0.47376 | 33025 ft | 399 kts | 223° |
| 2026-04-28 11:31 | 43.52216 | 0.42308 | 33018 ft | 399 kts | 223° |
| 2026-04-28 11:32 | 43.48057 | 0.37243 | 33018 ft | 399 kts | 223° |
| 2026-04-28 11:32 | 43.43886 | 0.32172 | 33022 ft | 400 kts | 223° |
| 2026-04-28 11:33 | 43.39721 | 0.27121 | 33014 ft | 400 kts | 223° |
| 2026-04-28 11:33 | 43.35544 | 0.22066 | 33017 ft | 400 kts | 223° |
| 2026-04-28 11:34 | 43.31361 | 0.17013 | 33019 ft | 401 kts | 223° |
| 2026-04-28 11:34 | 43.27171 | 0.11961 | 33020 ft | 401 kts | 223° |
| 2026-04-28 11:35 | 43.22978 | 0.06917 | 33020 ft | 401 kts | 222° |
| 2026-04-28 11:35 | 43.18778 | 0.01872 | 33020 ft | 401 kts | 222° |
| 2026-04-28 11:36 | 43.14578 | -0.03163 | 33019 ft | 401 kts | 222° |
| 2026-04-28 11:36 | 43.10371 | -0.08197 | 33022 ft | 402 kts | 222° |
| 2026-04-28 11:37 | 43.06161 | -0.13225 | 33026 ft | 403 kts | 222° |
| 2026-04-28 11:37 | 43.01930 | -0.18268 | 33019 ft | 402 kts | 222° |
| 2026-04-28 11:38 | 42.97708 | -0.23291 | 33020 ft | 403 kts | 222° |
| 2026-04-28 11:38 | 42.93476 | -0.28316 | 33003 ft | 403 kts | 222° |
| 2026-04-28 11:39 | 42.89264 | -0.33308 | 33017 ft | 404 kts | 222° |
| 2026-04-28 11:39 | 42.85024 | -0.38326 | 33011 ft | 404 kts | 222° |
| 2026-04-28 11:40 | 42.80697 | -0.43219 | 32996 ft | 405 kts | 212° |
| 2026-04-28 11:40 | 42.75482 | -0.46237 | 33005 ft | 409 kts | 204° |
| 2026-04-28 11:41 | 42.70189 | -0.49092 | 33009 ft | 410 kts | 203° |
| 2026-04-28 11:41 | 42.64871 | -0.51899 | 33001 ft | 410 kts | 203° |
| 2026-04-28 11:42 | 42.59555 | -0.54690 | 33003 ft | 410 kts | 203° |
| 2026-04-28 11:42 | 42.54228 | -0.57482 | 32994 ft | 411 kts | 203° |
| 2026-04-28 11:43 | 42.48892 | -0.60272 | 32988 ft | 411 kts | 203° |
| 2026-04-28 11:43 | 42.43563 | -0.63054 | 32991 ft | 411 kts | 203° |
| 2026-04-28 11:44 | 42.38189 | -0.65854 | 32979 ft | 411 kts | 203° |
| 2026-04-28 11:44 | 42.32843 | -0.68635 | 32978 ft | 411 kts | 203° |
| 2026-04-28 11:45 | 42.27537 | -0.71390 | 32977 ft | 412 kts | 203° |
| 2026-04-28 11:45 | 42.22191 | -0.74160 | 32979 ft | 412 kts | 203° |
| 2026-04-28 11:46 | 42.16839 | -0.76929 | 32977 ft | 412 kts | 202° |
| 2026-04-28 11:46 | 42.11486 | -0.79693 | 32976 ft | 412 kts | 202° |
| 2026-04-28 11:47 | 42.06122 | -0.82458 | 32974 ft | 412 kts | 202° |
| 2026-04-28 11:47 | 42.00757 | -0.85218 | 32973 ft | 413 kts | 202° |
| 2026-04-28 11:48 | 41.95393 | -0.87972 | 32976 ft | 413 kts | 202° |
| 2026-04-28 11:48 | 41.90067 | -0.90702 | 32965 ft | 413 kts | 202° |
| 2026-04-28 11:49 | 41.84670 | -0.93464 | 32968 ft | 412 kts | 202° |
| 2026-04-28 11:49 | 41.79306 | -0.96204 | 32967 ft | 413 kts | 202° |
| 2026-04-28 11:50 | 41.73936 | -0.98941 | 32963 ft | 412 kts | 202° |
| 2026-04-28 11:50 | 41.68616 | -1.01649 | 32965 ft | 412 kts | 202° |
| 2026-04-28 11:51 | 41.63580 | -1.05174 | 32976 ft | 408 kts | 216° |
| 2026-04-28 11:51 | 41.58888 | -1.09446 | 32965 ft | 409 kts | 216° |
| 2026-04-28 11:52 | 41.54186 | -1.13754 | 32967 ft | 409 kts | 216° |
| 2026-04-28 11:52 | 41.49497 | -1.18050 | 32961 ft | 409 kts | 216° |
| 2026-04-28 11:53 | 41.44797 | -1.22350 | 32965 ft | 409 kts | 216° |
| 2026-04-28 11:53 | 41.40105 | -1.26635 | 32964 ft | 409 kts | 216° |
| 2026-04-28 11:54 | 41.35417 | -1.30908 | 32966 ft | 409 kts | 216° |
| 2026-04-28 11:54 | 41.30722 | -1.35180 | 32965 ft | 409 kts | 216° |
| 2026-04-28 11:55 | 41.26025 | -1.39451 | 32960 ft | 409 kts | 216° |
| 2026-04-28 11:55 | 41.21332 | -1.43712 | 32962 ft | 409 kts | 216° |
| 2026-04-28 11:56 | 41.16641 | -1.47962 | 32958 ft | 408 kts | 215° |
| 2026-04-28 11:56 | 41.11944 | -1.52209 | 32957 ft | 408 kts | 215° |
| 2026-04-28 11:57 | 41.07252 | -1.56445 | 32959 ft | 408 kts | 215° |
| 2026-04-28 11:57 | 41.02587 | -1.60649 | 32951 ft | 408 kts | 215° |
| 2026-04-28 11:58 | 40.97899 | -1.64865 | 32953 ft | 408 kts | 215° |
| 2026-04-28 11:58 | 40.93207 | -1.69079 | 32959 ft | 408 kts | 215° |
| 2026-04-28 11:59 | 40.88511 | -1.73289 | 32954 ft | 407 kts | 215° |
| 2026-04-28 11:59 | 40.83822 | -1.77484 | 32975 ft | 407 kts | 215° |
| 2026-04-28 12:00 | 40.79099 | -1.81705 | 32955 ft | 407 kts | 215° |
| 2026-04-28 12:00 | 40.74403 | -1.85888 | 32961 ft | 407 kts | 215° |
| 2026-04-28 12:01 | 40.69713 | -1.90059 | 32957 ft | 407 kts | 215° |
| 2026-04-28 12:01 | 40.65062 | -1.94189 | 32954 ft | 406 kts | 215° |
| 2026-04-28 12:02 | 40.60373 | -1.98345 | 32952 ft | 406 kts | 215° |
| 2026-04-28 12:02 | 40.55684 | -2.02495 | 32966 ft | 406 kts | 215° |
| 2026-04-28 12:03 | 40.50997 | -2.06635 | 32958 ft | 406 kts | 215° |
| 2026-04-28 12:03 | 40.46313 | -2.10765 | 32958 ft | 405 kts | 215° |
| 2026-04-28 12:04 | 40.41634 | -2.14884 | 32963 ft | 405 kts | 215° |
| 2026-04-28 12:04 | 40.36949 | -2.19003 | 32963 ft | 405 kts | 215° |
| 2026-04-28 12:05 | 40.32268 | -2.23111 | 32951 ft | 405 kts | 214° |
| 2026-04-28 12:05 | 40.28365 | -2.26531 | 32961 ft | 405 kts | 214° |
| 2026-04-28 12:06 | 40.23678 | -2.30631 | 32960 ft | 406 kts | 214° |
| 2026-04-28 12:06 | 40.18976 | -2.34738 | 32964 ft | 406 kts | 214° |
| 2026-04-28 12:07 | 40.13512 | -2.39501 | 32945 ft | 406 kts | 214° |
| 2026-04-28 12:07 | 40.08814 | -2.43589 | 32963 ft | 406 kts | 214° |
| 2026-04-28 12:08 | 40.04873 | -2.47013 | 32964 ft | 406 kts | 214° |
| 2026-04-28 12:08 | 40.00163 | -2.51099 | 32964 ft | 407 kts | 214° |
| 2026-04-28 12:09 | 39.95480 | -2.55154 | 32967 ft | 407 kts | 214° |
| 2026-04-28 12:09 | 39.90771 | -2.59225 | 32960 ft | 407 kts | 214° |
| 2026-04-28 12:10 | 39.86045 | -2.63304 | 32971 ft | 407 kts | 214° |
| 2026-04-28 12:10 | 39.81325 | -2.67372 | 32967 ft | 408 kts | 214° |
| 2026-04-28 12:11 | 39.76588 | -2.71447 | 32965 ft | 408 kts | 214° |
| 2026-04-28 12:11 | 39.71847 | -2.75519 | 32952 ft | 409 kts | 214° |
| 2026-04-28 12:12 | 39.67087 | -2.79600 | 32956 ft | 409 kts | 214° |
| 2026-04-28 12:12 | 39.62340 | -2.83665 | 32957 ft | 409 kts | 214° |
| 2026-04-28 12:13 | 39.57577 | -2.87737 | 32953 ft | 410 kts | 214° |
| 2026-04-28 12:13 | 39.52854 | -2.91768 | 32949 ft | 410 kts | 214° |
| 2026-04-28 12:14 | 39.48084 | -2.95832 | 32952 ft | 410 kts | 214° |
| 2026-04-28 12:14 | 39.43322 | -2.99883 | 32943 ft | 410 kts | 214° |
| 2026-04-28 12:15 | 39.38363 | -3.03524 | 32942 ft | 411 kts | 200° |
| 2026-04-28 12:15 | 39.33009 | -3.06128 | 32946 ft | 413 kts | 202° |
| 2026-04-28 12:16 | 39.27620 | -3.08764 | 32943 ft | 414 kts | 202° |
| 2026-04-28 12:16 | 39.22225 | -3.11386 | 32942 ft | 414 kts | 202° |
| 2026-04-28 12:17 | 39.16822 | -3.14007 | 32942 ft | 415 kts | 202° |